sensor_id;sensor_type;location;lat;lon;timestamp;pressure;altitude;pressure_sealevel;temperature
61189;BMP280;47054;39.716;2.904;2023-02-11T00:00:58;102285.63;;;14.37
61189;BMP280;47054;39.716;2.904;2023-02-11T00:03:43;102283.75;;;14.37
61189;BMP280;47054;39.716;2.904;2023-02-11T00:06:29;102278.41;;;14.37
61189;BMP280;47054;39.716;2.904;2023-02-11T00:09:14;102280.28;;;14.37
61189;BMP280;47054;39.716;2.904;2023-02-11T00:11:59;102280.28;;;14.37
61189;BMP280;47054;39.716;2.904;2023-02-11T00:14:44;102270.47;;;14.32
61189;BMP280;47054;39.716;2.904;2023-02-11T00:17:28;102266.16;;;14.36
61189;BMP280;47054;39.716;2.904;2023-02-11T00:20:13;102263.50;;;14.36
61189;BMP280;47054;39.716;2.904;2023-02-11T00:22:58;102256.56;;;14.35
61189;BMP280;47054;39.716;2.904;2023-02-11T00:25:44;102261.09;;;14.35
61189;BMP280;47054;39.716;2.904;2023-02-11T00:28:29;102269.91;;;14.35
61189;BMP280;47054;39.716;2.904;2023-02-11T00:31:15;102261.09;;;14.35
61189;BMP280;47054;39.716;2.904;2023-02-11T00:34:00;102262.19;;;14.34
61189;BMP280;47054;39.716;2.904;2023-02-11T00:36:45;102260.31;;;14.34
61189;BMP280;47054;39.716;2.904;2023-02-11T00:39:30;102255.75;;;14.35
61189;BMP280;47054;39.716;2.904;2023-02-11T00:42:14;102242.00;;;14.28
61189;BMP280;47054;39.716;2.904;2023-02-11T00:44:59;102244.84;;;14.31
61189;BMP280;47054;39.716;2.904;2023-02-11T00:47:44;102246.78;;;14.31
61189;BMP280;47054;39.716;2.904;2023-02-11T00:50:29;102246.47;;;14.32
61189;BMP280;47054;39.716;2.904;2023-02-11T00:53:13;102246.19;;;14.34
61189;BMP280;47054;39.716;2.904;2023-02-11T00:55:58;102239.84;;;14.30
61189;BMP280;47054;39.716;2.904;2023-02-11T00:58:44;102233.13;;;14.32
61189;BMP280;47054;39.716;2.904;2023-02-11T01:01:29;102232.66;;;14.30
61189;BMP280;47054;39.716;2.904;2023-02-11T01:04:14;102231.25;;;14.33
61189;BMP280;47054;39.716;2.904;2023-02-11T01:06:59;102234.72;;;14.33
61189;BMP280;47054;39.716;2.904;2023-02-11T01:09:45;102224.03;;;14.33
61189;BMP280;47054;39.716;2.904;2023-02-11T01:12:29;102218.78;;;14.28
61189;BMP280;47054;39.716;2.904;2023-02-11T01:15:18;102223.50;;;14.31
61189;BMP280;47054;39.716;2.904;2023-02-11T01:18:04;102212.94;;;14.26
61189;BMP280;47054;39.716;2.904;2023-02-11T01:20:52;102216.28;;;14.32
61189;BMP280;47054;39.716;2.904;2023-02-11T01:23:38;102213.97;;;14.30
61189;BMP280;47054;39.716;2.904;2023-02-11T01:26:23;102221.97;;;14.30
61189;BMP280;47054;39.716;2.904;2023-02-11T01:29:07;102214.25;;;14.29
61189;BMP280;47054;39.716;2.904;2023-02-11T01:31:54;102213.16;;;14.30
61189;BMP280;47054;39.716;2.904;2023-02-11T01:34:38;102218.78;;;14.28
61189;BMP280;47054;39.716;2.904;2023-02-11T01:37:23;102206.53;;;14.27
61189;BMP280;47054;39.716;2.904;2023-02-11T01:40:12;102209.69;;;14.29
61189;BMP280;47054;39.716;2.904;2023-02-11T01:42:57;102211.06;;;14.27
61189;BMP280;47054;39.716;2.904;2023-02-11T01:48:38;102208.91;;;14.29
61189;BMP280;47054;39.716;2.904;2023-02-11T01:51:32;102209.19;;;14.27
61189;BMP280;47054;39.716;2.904;2023-02-11T01:54:22;102211.88;;;14.27
61189;BMP280;47054;39.716;2.904;2023-02-11T01:57:28;102201.56;;;14.21
61189;BMP280;47054;39.716;2.904;2023-02-11T02:03:17;102205.25;;;14.25
61189;BMP280;47054;39.716;2.904;2023-02-11T02:06:12;102209.78;;;14.24
61189;BMP280;47054;39.716;2.904;2023-02-11T02:11:48;102201.84;;;14.19
61189;BMP280;47054;39.716;2.904;2023-02-11T02:14:37;102203.69;;;14.24
61189;BMP280;47054;39.716;2.904;2023-02-11T02:17:31;102187.44;;;14.20
61189;BMP280;47054;39.716;2.904;2023-02-11T02:33:24;102180.00;;;14.17
61189;BMP280;47054;39.716;2.904;2023-02-11T02:39:05;102172.31;;;14.16
61189;BMP280;47054;39.716;2.904;2023-02-11T02:41:52;102172.13;;;14.12
61189;BMP280;47054;39.716;2.904;2023-02-11T02:44:37;102172.00;;;14.17
61189;BMP280;47054;39.716;2.904;2023-02-11T02:47:22;102166.19;;;14.15
61189;BMP280;47054;39.716;2.904;2023-02-11T02:50:09;102172.81;;;14.18
61189;BMP280;47054;39.716;2.904;2023-02-11T02:56:35;102165.91;;;14.17
61189;BMP280;47054;39.716;2.904;2023-02-11T02:59:26;102159.16;;;14.06
61189;BMP280;47054;39.716;2.904;2023-02-11T03:02:34;102168.66;;;14.12
61189;BMP280;47054;39.716;2.904;2023-02-11T03:08:38;102166.78;;;14.12
61189;BMP280;47054;39.716;2.904;2023-02-11T03:11:23;102150.09;;;14.07
61189;BMP280;47054;39.716;2.904;2023-02-11T03:14:11;102151.84;;;14.11
61189;BMP280;47054;39.716;2.904;2023-02-11T03:17:01;102153.72;;;14.11
61189;BMP280;47054;39.716;2.904;2023-02-11T03:19:49;102155.00;;;14.13
61189;BMP280;47054;39.716;2.904;2023-02-11T03:22:44;102144.66;;;14.12
61189;BMP280;47054;39.716;2.904;2023-02-11T03:25:37;102151.56;;;14.13
61189;BMP280;47054;39.716;2.904;2023-02-11T03:31:25;102159.56;;;14.13
61189;BMP280;47054;39.716;2.904;2023-02-11T03:34:28;102158.28;;;14.10
61189;BMP280;47054;39.716;2.904;2023-02-11T03:37:31;102153.22;;;14.09
61189;BMP280;47054;39.716;2.904;2023-02-11T03:40:24;102162.53;;;14.11
61189;BMP280;47054;39.716;2.904;2023-02-11T03:43:47;102169.22;;;14.09
61189;BMP280;47054;39.716;2.904;2023-02-11T03:46:36;102160.44;;;14.08
61189;BMP280;47054;39.716;2.904;2023-02-11T03:49:24;102156.69;;;14.09
61189;BMP280;47054;39.716;2.904;2023-02-11T03:52:11;102150.09;;;14.07
61189;BMP280;47054;39.716;2.904;2023-02-11T03:54:59;102153.03;;;14.05
61189;BMP280;47054;39.716;2.904;2023-02-11T03:57:46;102161.50;;;14.07
61189;BMP280;47054;39.716;2.904;2023-02-11T04:00:38;102168.97;;;14.10
61189;BMP280;47054;39.716;2.904;2023-02-11T04:03:24;102171.91;;;14.09
61189;BMP280;47054;39.716;2.904;2023-02-11T04:06:08;102164.97;;;14.08
61189;BMP280;47054;39.716;2.904;2023-02-11T04:08:54;102164.97;;;14.08
61189;BMP280;47054;39.716;2.904;2023-02-11T04:11:39;102166.84;;;14.07
61189;BMP280;47054;39.716;2.904;2023-02-11T04:14:24;102165.31;;;14.06
61189;BMP280;47054;39.716;2.904;2023-02-11T04:17:08;102168.75;;;14.07
61189;BMP280;47054;39.716;2.904;2023-02-11T04:19:53;102161.84;;;14.06
61189;BMP280;47054;39.716;2.904;2023-02-11T04:22:38;102164.97;;;14.08
61189;BMP280;47054;39.716;2.904;2023-02-11T04:25:23;102166.84;;;14.07
61189;BMP280;47054;39.716;2.904;2023-02-11T04:28:09;102173.31;;;14.06
61189;BMP280;47054;39.716;2.904;2023-02-11T04:30:54;102163.44;;;14.07
61189;BMP280;47054;39.716;2.904;2023-02-11T04:33:40;102163.47;;;14.02
61189;BMP280;47054;39.716;2.904;2023-02-11T04:36:26;102158.38;;;14.05
61189;BMP280;47054;39.716;2.904;2023-02-11T04:39:11;102165.06;;;14.03
61189;BMP280;47054;39.716;2.904;2023-02-11T04:41:57;102162.91;;;14.05
61189;BMP280;47054;39.716;2.904;2023-02-11T04:44:42;102168.53;;;14.03
61189;BMP280;47054;39.716;2.904;2023-02-11T04:47:26;102166.66;;;14.04
61189;BMP280;47054;39.716;2.904;2023-02-11T04:50:10;102165.56;;;14.05
61189;BMP280;47054;39.716;2.904;2023-02-11T04:52:56;102163.97;;;14.04
61189;BMP280;47054;39.716;2.904;2023-02-11T04:55:41;102163.22;;;14.03
61189;BMP280;47054;39.716;2.904;2023-02-11T04:58:26;102169.63;;;14.02
61189;BMP280;47054;39.716;2.904;2023-02-11T05:01:13;102161.69;;;13.97
61189;BMP280;47054;39.716;2.904;2023-02-11T05:03:59;102169.63;;;14.02
61189;BMP280;47054;39.716;2.904;2023-02-11T05:06:44;102162.69;;;14.01
61189;BMP280;47054;39.716;2.904;2023-02-11T05:09:29;102150.53;;;13.95
61189;BMP280;47054;39.716;2.904;2023-02-11T05:12:13;102157.16;;;13.98
61189;BMP280;47054;39.716;2.904;2023-02-11T05:14:58;102157.34;;;14.01
61189;BMP280;47054;39.716;2.904;2023-02-11T05:17:43;102150.75;;;13.99
61189;BMP280;47054;39.716;2.904;2023-02-11T05:20:27;102156.09;;;13.99
61189;BMP280;47054;39.716;2.904;2023-02-11T05:23:12;102156.34;;;13.97
61189;BMP280;47054;39.716;2.904;2023-02-11T05:25:56;102155.00;;;14.00
61189;BMP280;47054;39.716;2.904;2023-02-11T05:28:41;102155.28;;;13.98
61189;BMP280;47054;39.716;2.904;2023-02-11T05:31:26;102149.75;;;13.95
61189;BMP280;47054;39.716;2.904;2023-02-11T05:34:11;102157.16;;;13.98
61189;BMP280;47054;39.716;2.904;2023-02-11T05:36:56;102151.81;;;13.98
61189;BMP280;47054;39.716;2.904;2023-02-11T05:39:41;102159.03;;;13.97
61189;BMP280;47054;39.716;2.904;2023-02-11T05:42:25;102144.69;;;13.93
61189;BMP280;47054;39.716;2.904;2023-02-11T05:45:10;102150.53;;;13.95
61189;BMP280;47054;39.716;2.904;2023-02-11T05:47:54;102152.13;;;13.96
61189;BMP280;47054;39.716;2.904;2023-02-11T05:50:41;102152.13;;;13.96
61189;BMP280;47054;39.716;2.904;2023-02-11T05:53:27;102148.97;;;13.94
61189;BMP280;47054;39.716;2.904;2023-02-11T05:56:12;102145.19;;;13.95
61189;BMP280;47054;39.716;2.904;2023-02-11T05:58:58;102144.47;;;13.89
61189;BMP280;47054;39.716;2.904;2023-02-11T06:01:43;102148.28;;;13.88
61189;BMP280;47054;39.716;2.904;2023-02-11T06:04:27;102147.94;;;13.90
61189;BMP280;47054;39.716;2.904;2023-02-11T06:07:12;102139.94;;;13.90
61189;BMP280;47054;39.716;2.904;2023-02-11T06:09:57;102151.94;;;13.93
61189;BMP280;47054;39.716;2.904;2023-02-11T06:12:43;102144.19;;;13.91
61189;BMP280;47054;39.716;2.904;2023-02-11T06:15:28;102139.47;;;13.88
61189;BMP280;47054;39.716;2.904;2023-02-11T06:18:12;102146.06;;;13.90
61189;BMP280;47054;39.716;2.904;2023-02-11T06:20:57;102139.13;;;13.89
61189;BMP280;47054;39.716;2.904;2023-02-11T06:23:41;102136.81;;;13.88
61189;BMP280;47054;39.716;2.904;2023-02-11T06:26:26;102139.13;;;13.89
61189;BMP280;47054;39.716;2.904;2023-02-11T06:29:11;102131.47;;;13.88
61189;BMP280;47054;39.716;2.904;2023-02-11T06:31:56;102122.00;;;13.82
61189;BMP280;47054;39.716;2.904;2023-02-11T06:34:40;102135.50;;;13.85
61189;BMP280;47054;39.716;2.904;2023-02-11T06:37:25;102134.94;;;13.88
61189;BMP280;47054;39.716;2.904;2023-02-11T06:40:10;102129.66;;;13.83
61189;BMP280;47054;39.716;2.904;2023-02-11T06:42:55;102132.53;;;13.87
61189;BMP280;47054;39.716;2.904;2023-02-11T06:45:39;102135.50;;;13.85
61189;BMP280;47054;39.716;2.904;2023-02-11T06:48:24;102132.06;;;13.85
61189;BMP280;47054;39.716;2.904;2023-02-11T06:51:10;102139.84;;;13.81
61189;BMP280;47054;39.716;2.904;2023-02-11T06:53:55;102136.59;;;13.84
61189;BMP280;47054;39.716;2.904;2023-02-11T06:56:40;102126.91;;;13.75
61189;BMP280;47054;39.716;2.904;2023-02-11T06:59:25;102139.25;;;13.84
61189;BMP280;47054;39.716;2.904;2023-02-11T07:02:10;102138.00;;;13.82
61189;BMP280;47054;39.716;2.904;2023-02-11T07:04:56;102141.91;;;13.84
61189;BMP280;47054;39.716;2.904;2023-02-11T07:07:41;102135.31;;;13.82
61189;BMP280;47054;39.716;2.904;2023-02-11T07:10:26;102137.22;;;13.76
61189;BMP280;47054;39.716;2.904;2023-02-11T07:13:11;102142.97;;;13.83
61189;BMP280;47054;39.716;2.904;2023-02-11T07:15:56;102141.44;;;13.82
61189;BMP280;47054;39.716;2.904;2023-02-11T07:18:41;102134.53;;;13.81
61189;BMP280;47054;39.716;2.904;2023-02-11T07:21:27;102137.75;;;13.78
61189;BMP280;47054;39.716;2.904;2023-02-11T07:24:12;102135.59;;;13.80
61189;BMP280;47054;39.716;2.904;2023-02-11T07:26:56;102138.56;;;13.79
61189;BMP280;47054;39.716;2.904;2023-02-11T07:29:41;102144.16;;;13.77
61189;BMP280;47054;39.716;2.904;2023-02-11T07:32:26;102145.22;;;13.76
61189;BMP280;47054;39.716;2.904;2023-02-11T07:35:11;102149.78;;;13.76
61189;BMP280;47054;39.716;2.904;2023-02-11T07:37:56;102144.47;;;13.76
61189;BMP280;47054;39.716;2.904;2023-02-11T07:40:41;102146.84;;;13.77
61189;BMP280;47054;39.716;2.904;2023-02-11T07:43:26;102155.63;;;13.78
61189;BMP280;47054;39.716;2.904;2023-02-11T07:46:23;102151.88;;;13.79
61189;BMP280;47054;39.716;2.904;2023-02-11T07:49:09;102148.81;;;13.72
61189;BMP280;47054;39.716;2.904;2023-02-11T07:51:54;102148.31;;;13.70
61189;BMP280;47054;39.716;2.904;2023-02-11T07:54:39;102162.38;;;13.75
61189;BMP280;47054;39.716;2.904;2023-02-11T07:57:24;102162.91;;;13.72
61189;BMP280;47054;39.716;2.904;2023-02-11T08:00:09;102156.31;;;13.70
61189;BMP280;47054;39.716;2.904;2023-02-11T08:02:57;102163.44;;;13.74
61189;BMP280;47054;39.716;2.904;2023-02-11T08:05:41;102161.56;;;13.75
61189;BMP280;47054;39.716;2.904;2023-02-11T08:08:27;102170.38;;;13.75
61189;BMP280;47054;39.716;2.904;2023-02-11T08:11:22;102160.78;;;13.74
61189;BMP280;47054;39.716;2.904;2023-02-11T08:14:07;102159.47;;;13.72
61189;BMP280;47054;39.716;2.904;2023-02-11T08:16:52;102155.69;;;13.73
61189;BMP280;47054;39.716;2.904;2023-02-11T08:19:37;102153.84;;;13.73
61189;BMP280;47054;39.716;2.904;2023-02-11T08:22:22;102159.16;;;13.73
61189;BMP280;47054;39.716;2.904;2023-02-11T08:25:09;102153.63;;;13.70
61189;BMP280;47054;39.716;2.904;2023-02-11T08:27:54;102155.69;;;13.73
61189;BMP280;47054;39.716;2.904;2023-02-11T08:30:38;102157.56;;;13.72
61189;BMP280;47054;39.716;2.904;2023-02-11T08:33:22;102163.69;;;13.73
61189;BMP280;47054;39.716;2.904;2023-02-11T08:36:16;102171.69;;;13.73
61189;BMP280;47054;39.716;2.904;2023-02-11T08:39:03;102171.69;;;13.73
61189;BMP280;47054;39.716;2.904;2023-02-11T08:41:52;102155.50;;;13.69
61189;BMP280;47054;39.716;2.904;2023-02-11T08:44:37;102164.81;;;13.72
61189;BMP280;47054;39.716;2.904;2023-02-11T08:47:24;102163.50;;;13.69
61189;BMP280;47054;39.716;2.904;2023-02-11T08:50:09;102173.88;;;13.71
61189;BMP280;47054;39.716;2.904;2023-02-11T08:52:53;102160.59;;;13.66
61189;BMP280;47054;39.716;2.904;2023-02-11T08:55:38;102169.34;;;13.71
61189;BMP280;47054;39.716;2.904;2023-02-11T08:58:22;102167.53;;;13.67
61189;BMP280;47054;39.716;2.904;2023-02-11T09:01:27;102164.38;;;13.65
61189;BMP280;47054;39.716;2.904;2023-02-11T09:04:12;102173.38;;;13.69
61189;BMP280;47054;39.716;2.904;2023-02-11T09:06:57;102172.31;;;13.70
61189;BMP280;47054;39.716;2.904;2023-02-11T09:09:42;102171.81;;;13.68
61189;BMP280;47054;39.716;2.904;2023-02-11T09:12:26;102187.50;;;13.69
61189;BMP280;47054;39.716;2.904;2023-02-11T09:15:11;102190.47;;;13.68
61189;BMP280;47054;39.716;2.904;2023-02-11T09:17:56;102184.03;;;13.69
61189;BMP280;47054;39.716;2.904;2023-02-11T09:20:41;102184.03;;;13.69
61189;BMP280;47054;39.716;2.904;2023-02-11T09:23:25;102170.84;;;13.59
61189;BMP280;47054;39.716;2.904;2023-02-11T09:26:18;102187.50;;;13.69
61189;BMP280;47054;39.716;2.904;2023-02-11T09:29:04;102187.00;;;13.67
61189;BMP280;47054;39.716;2.904;2023-02-11T09:31:48;102186.00;;;13.63
61189;BMP280;47054;39.716;2.904;2023-02-11T09:34:35;102184.34;;;13.67
61189;BMP280;47054;39.716;2.904;2023-02-11T09:37:20;102189.94;;;13.66
61189;BMP280;47054;39.716;2.904;2023-02-11T09:40:05;102185.22;;;13.63
61189;BMP280;47054;39.716;2.904;2023-02-11T09:45:45;102184.09;;;13.64
61189;BMP280;47054;39.716;2.904;2023-02-11T09:48:37;102184.41;;;13.62
61189;BMP280;47054;39.716;2.904;2023-02-11T09:51:39;102184.09;;;13.64
61189;BMP280;47054;39.716;2.904;2023-02-11T09:54:30;102194.47;;;13.65
61189;BMP280;47054;39.716;2.904;2023-02-11T09:57:18;102192.09;;;13.64
61189;BMP280;47054;39.716;2.904;2023-02-11T10:00:32;102190.53;;;13.63
61189;BMP280;47054;39.716;2.904;2023-02-11T10:06:20;102187.06;;;13.62
61189;BMP280;47054;39.716;2.904;2023-02-11T10:18:56;102182.84;;;13.61
61189;BMP280;47054;39.716;2.904;2023-02-11T10:24:36;102199.91;;;13.60
61189;BMP280;47054;39.716;2.904;2023-02-11T10:27:27;102198.31;;;13.59
61189;BMP280;47054;39.716;2.904;2023-02-11T10:30:36;102208.69;;;13.61
61189;BMP280;47054;39.716;2.904;2023-02-11T10:33:45;102201.78;;;13.60
61189;BMP280;47054;39.716;2.904;2023-02-11T10:36:34;102206.31;;;13.59
61189;BMP280;47054;39.716;2.904;2023-02-11T10:39:21;102204.44;;;13.60
61189;BMP280;47054;39.716;2.904;2023-02-11T10:42:11;102205.25;;;13.60
61189;BMP280;47054;39.716;2.904;2023-02-11T10:45:02;102200.69;;;13.61
61189;BMP280;47054;39.716;2.904;2023-02-11T10:47:48;102193.34;;;13.53
61189;BMP280;47054;39.716;2.904;2023-02-11T10:50:34;102194.84;;;13.59
61189;BMP280;47054;39.716;2.904;2023-02-11T10:53:20;102199.09;;;13.60
61189;BMP280;47054;39.716;2.904;2023-02-11T10:56:06;102196.44;;;13.60
61189;BMP280;47054;39.716;2.904;2023-02-11T11:01:58;102184.72;;;13.61
61189;BMP280;47054;39.716;2.904;2023-02-11T11:04:44;102178.94;;;13.54
61189;BMP280;47054;39.716;2.904;2023-02-11T11:07:31;102174.09;;;13.56
61189;BMP280;47054;39.716;2.904;2023-02-11T11:11:00;102175.09;;;13.60
61189;BMP280;47054;39.716;2.904;2023-02-11T11:13:35;102169.09;;;13.54
61189;BMP280;47054;39.716;2.904;2023-02-11T11:16:29;102164.56;;;13.55
61189;BMP280;47054;39.716;2.904;2023-02-11T11:19:21;102156.03;;;13.53
61189;BMP280;47054;39.716;2.904;2023-02-11T11:22:12;102164.25;;;13.56
61189;BMP280;47054;39.716;2.904;2023-02-11T11:25:03;102162.09;;;13.58
61189;BMP280;47054;39.716;2.904;2023-02-11T11:27:55;102159.41;;;13.58
61189;BMP280;47054;39.716;2.904;2023-02-11T11:30:42;102147.75;;;13.54
61189;BMP280;47054;39.716;2.904;2023-02-11T11:33:32;102137.47;;;13.48
61189;BMP280;47054;39.716;2.904;2023-02-11T11:36:30;102141.31;;;13.55
61189;BMP280;47054;39.716;2.904;2023-02-11T11:39:22;102145.59;;;13.56
61189;BMP280;47054;39.716;2.904;2023-02-11T11:42:27;102127.50;;;13.53
61189;BMP280;47054;39.716;2.904;2023-02-11T11:51:00;102111.78;;;13.52
61189;BMP280;47054;39.716;2.904;2023-02-11T11:53:52;102105.91;;;13.55
61189;BMP280;47054;39.716;2.904;2023-02-11T11:56:49;102102.72;;;13.53
61189;BMP280;47054;39.716;2.904;2023-02-11T11:59:35;102108.56;;;13.55
61189;BMP280;47054;39.716;2.904;2023-02-11T12:08:46;102087.53;;;13.53
61189;BMP280;47054;39.716;2.904;2023-02-11T12:14:32;102085.66;;;13.54
61189;BMP280;47054;39.716;2.904;2023-02-11T12:18:27;102084.06;;;13.53
61189;BMP280;47054;39.716;2.904;2023-02-11T12:21:11;102078.72;;;13.53
61189;BMP280;47054;39.716;2.904;2023-02-11T12:24:15;102080.94;;;13.51
61189;BMP280;47054;39.716;2.904;2023-02-11T12:27:22;102071.59;;;13.48
61189;BMP280;47054;39.716;2.904;2023-02-11T12:36:46;102069.47;;;13.50
61189;BMP280;47054;39.716;2.904;2023-02-11T12:46:17;102064.13;;;13.50
61189;BMP280;47054;39.716;2.904;2023-02-11T12:55:22;102046.53;;;13.49
61189;BMP280;47054;39.716;2.904;2023-02-11T12:58:20;102039.13;;;13.46
61189;BMP280;47054;39.716;2.904;2023-02-11T13:01:17;102028.97;;;13.48
61189;BMP280;47054;39.716;2.904;2023-02-11T13:04:28;102032.94;;;13.51
61189;BMP280;47054;39.716;2.904;2023-02-11T13:07:25;102031.09;;;13.51
61189;BMP280;47054;39.716;2.904;2023-02-11T13:10:36;102021.75;;;13.49
61189;BMP280;47054;39.716;2.904;2023-02-11T13:13:29;102024.16;;;13.50
61189;BMP280;47054;39.716;2.904;2023-02-11T13:16:44;102020.69;;;13.50
61189;BMP280;47054;39.716;2.904;2023-02-11T13:19:49;102016.97;;;13.51
61189;BMP280;47054;39.716;2.904;2023-02-11T13:22:44;102011.09;;;13.49
61189;BMP280;47054;39.716;2.904;2023-02-11T13:25:49;102018.31;;;13.48
61189;BMP280;47054;39.716;2.904;2023-02-11T13:28:47;102009.75;;;13.51
61189;BMP280;47054;39.716;2.904;2023-02-11T13:31:34;102003.09;;;13.49
61189;BMP280;47054;39.716;2.904;2023-02-11T13:34:23;102003.31;;;13.52
61189;BMP280;47054;39.716;2.904;2023-02-11T13:37:35;102001.75;;;13.51
61189;BMP280;47054;39.716;2.904;2023-02-11T13:40:23;102006.28;;;13.51
61189;BMP280;47054;39.716;2.904;2023-02-11T13:43:34;101997.50;;;13.50
61189;BMP280;47054;39.716;2.904;2023-02-11T13:46:19;101998.06;;;13.47
61189;BMP280;47054;39.716;2.904;2023-02-11T13:49:04;101993.78;;;13.51
61189;BMP280;47054;39.716;2.904;2023-02-11T13:51:49;101985.91;;;13.41
61189;BMP280;47054;39.716;2.904;2023-02-11T13:54:37;101996.72;;;13.50
61189;BMP280;47054;39.716;2.904;2023-02-11T13:57:31;101999.56;;;13.53
61189;BMP280;47054;39.716;2.904;2023-02-11T14:03:29;101989.16;;;13.52
61189;BMP280;47054;39.716;2.904;2023-02-11T14:06:32;101992.16;;;13.50
61189;BMP280;47054;39.716;2.904;2023-02-11T14:09:38;101988.72;;;13.50
61189;BMP280;47054;39.716;2.904;2023-02-11T14:12:31;101985.44;;;13.53
61189;BMP280;47054;39.716;2.904;2023-02-11T14:15:20;101981.78;;;13.49
61189;BMP280;47054;39.716;2.904;2023-02-11T14:27:08;101973.97;;;13.52
61189;BMP280;47054;39.716;2.904;2023-02-11T14:30:28;101981.97;;;13.52
61189;BMP280;47054;39.716;2.904;2023-02-11T14:33:36;101981.97;;;13.52
61189;BMP280;47054;39.716;2.904;2023-02-11T14:39:31;101980.44;;;13.51
61189;BMP280;47054;39.716;2.904;2023-02-11T14:42:21;101981.97;;;13.52
61189;BMP280;47054;39.716;2.904;2023-02-11T14:45:15;101965.78;;;13.49
61189;BMP280;47054;39.716;2.904;2023-02-11T14:48:13;101973.50;;;13.50
61189;BMP280;47054;39.716;2.904;2023-02-11T14:53:49;101968.97;;;13.51
61189;BMP280;47054;39.716;2.904;2023-02-11T14:56:34;101960.19;;;13.50
61189;BMP280;47054;39.716;2.904;2023-02-11T14:59:21;101962.06;;;13.50
61189;BMP280;47054;39.716;2.904;2023-02-11T15:02:28;101966.78;;;13.53
61189;BMP280;47054;39.716;2.904;2023-02-11T15:05:27;101968.38;;;13.54
61189;BMP280;47054;39.716;2.904;2023-02-11T15:08:13;101975.84;;;13.52
61189;BMP280;47054;39.716;2.904;2023-02-11T15:11:01;101966.78;;;13.53
61189;BMP280;47054;39.716;2.904;2023-02-11T15:13:47;101965.78;;;13.49
61189;BMP280;47054;39.716;2.904;2023-02-11T15:16:33;101968.66;;;13.52
61189;BMP280;47054;39.716;2.904;2023-02-11T15:19:23;101963.03;;;13.54
61189;BMP280;47054;39.716;2.904;2023-02-11T15:22:18;101968.06;;;13.55
61189;BMP280;47054;39.716;2.904;2023-02-11T15:27:54;101968.06;;;13.55
61189;BMP280;47054;39.716;2.904;2023-02-11T15:30:39;101972.13;;;13.53
61189;BMP280;47054;39.716;2.904;2023-02-11T15:33:24;101969.19;;;13.54
61189;BMP280;47054;39.716;2.904;2023-02-11T15:36:13;101958.78;;;13.53
61189;BMP280;47054;39.716;2.904;2023-02-11T15:48:13;101962.53;;;13.52
61189;BMP280;47054;39.716;2.904;2023-02-11T15:51:02;101964.44;;;13.51
61189;BMP280;47054;39.716;2.904;2023-02-11T15:53:57;101967.31;;;13.55
61189;BMP280;47054;39.716;2.904;2023-02-11T15:56:43;101966.50;;;13.54
61189;BMP280;47054;39.716;2.904;2023-02-11T15:59:37;101960.47;;;13.49
61189;BMP280;47054;39.716;2.904;2023-02-11T16:02:31;101962.25;;;13.53
61189;BMP280;47054;39.716;2.904;2023-02-11T16:05:32;101969.19;;;13.54
61189;BMP280;47054;39.716;2.904;2023-02-11T16:08:24;101965.72;;;13.54
61189;BMP280;47054;39.716;2.904;2023-02-11T16:11:23;101967.47;;;13.45
61189;BMP280;47054;39.716;2.904;2023-02-11T16:17:21;101973.00;;;13.48
61189;BMP280;47054;39.716;2.904;2023-02-11T16:20:17;101963.66;;;13.51
61189;BMP280;47054;39.716;2.904;2023-02-11T16:23:02;101959.97;;;13.47
61189;BMP280;47054;39.716;2.904;2023-02-11T16:25:50;101967.38;;;13.50
61189;BMP280;47054;39.716;2.904;2023-02-11T16:28:38;101962.53;;;13.52
61189;BMP280;47054;39.716;2.904;2023-02-11T16:31:31;101959.13;;;13.51
61189;BMP280;47054;39.716;2.904;2023-02-11T16:34:21;101960.56;;;13.44
61189;BMP280;47054;39.716;2.904;2023-02-11T16:37:06;101963.44;;;13.47
61189;BMP280;47054;39.716;2.904;2023-02-11T16:39:55;101964.72;;;13.50
61189;BMP280;47054;39.716;2.904;2023-02-11T16:42:40;101971.13;;;13.49
61189;BMP280;47054;39.716;2.904;2023-02-11T16:45:25;101970.50;;;13.52
61189;BMP280;47054;39.716;2.904;2023-02-11T16:48:14;101972.13;;;13.53
61189;BMP280;47054;39.716;2.904;2023-02-11T16:51:00;101967.84;;;13.52
61189;BMP280;47054;39.716;2.904;2023-02-11T16:53:44;101974.78;;;13.53
61189;BMP280;47054;39.716;2.904;2023-02-11T16:56:29;101967.13;;;13.51
61189;BMP280;47054;39.716;2.904;2023-02-11T16:59:14;101970.25;;;13.53
61189;BMP280;47054;39.716;2.904;2023-02-11T17:01:59;101968.06;;;13.55
61189;BMP280;47054;39.716;2.904;2023-02-11T17:04:44;101969.19;;;13.54
61189;BMP280;47054;39.716;2.904;2023-02-11T17:07:30;101972.13;;;13.53
61189;BMP280;47054;39.716;2.904;2023-02-11T17:10:24;101972.63;;;13.55
61189;BMP280;47054;39.716;2.904;2023-02-11T17:13:08;101967.31;;;13.55
61189;BMP280;47054;39.716;2.904;2023-02-11T17:15:53;101968.66;;;13.52
61189;BMP280;47054;39.716;2.904;2023-02-11T17:18:38;101971.03;;;13.54
61189;BMP280;47054;39.716;2.904;2023-02-11T17:21:24;101972.34;;;13.56
61189;BMP280;47054;39.716;2.904;2023-02-11T17:24:10;101970.25;;;13.53
61189;BMP280;47054;39.716;2.904;2023-02-11T17:26:55;101977.34;;;13.58
61189;BMP280;47054;39.716;2.904;2023-02-11T17:29:40;101973.41;;;13.55
61189;BMP280;47054;39.716;2.904;2023-02-11T17:32:25;101975.50;;;13.58
61189;BMP280;47054;39.716;2.904;2023-02-11T17:35:09;101974.78;;;13.53
61189;BMP280;47054;39.716;2.904;2023-02-11T17:37:55;101979.72;;;13.59
61189;BMP280;47054;39.716;2.904;2023-02-11T17:40:42;101979.25;;;13.57
61189;BMP280;47054;39.716;2.904;2023-02-11T17:43:26;101975.50;;;13.58
61189;BMP280;47054;39.716;2.904;2023-02-11T17:46:11;101972.81;;;13.58
61189;BMP280;47054;39.716;2.904;2023-02-11T17:48:57;101971.53;;;13.56
61189;BMP280;47054;39.716;2.904;2023-02-11T17:51:42;101980.81;;;13.58
61189;BMP280;47054;39.716;2.904;2023-02-11T17:54:28;101986.16;;;13.58
61189;BMP280;47054;39.716;2.904;2023-02-11T17:57:13;101983.47;;;13.58
61189;BMP280;47054;39.716;2.904;2023-02-11T17:59:59;101980.03;;;13.58
61189;BMP280;47054;39.716;2.904;2023-02-11T18:02:44;101977.16;;;13.54